createdAt,value
2019-02-09T00:02:32.005Z,100.00
2019-02-09T00:05:52.797Z,100.00
2019-02-09T00:08:27.557Z,100.00
2019-02-09T00:11:00.411Z,100.00
2019-02-09T00:13:37.642Z,100.00
2019-02-09T00:20:17.335Z,100.00
2019-02-09T00:22:50.488Z,100.00
2019-02-09T00:26:08.595Z,100.00
2019-02-09T00:28:44.127Z,100.00
2019-02-09T00:31:19.906Z,100.00
2019-02-09T00:37:20.857Z,100.00
2019-02-09T00:39:55.030Z,100.00
2019-02-09T00:42:29.786Z,100.00
2019-02-09T00:45:04.467Z,100.00
2019-02-09T00:51:37.715Z,100.00
2019-02-09T00:58:09.495Z,100.00
2019-02-09T01:00:42.138Z,100.00
2019-02-09T01:03:14.552Z,100.00
2019-02-09T01:05:47.768Z,100.00
2019-02-09T01:08:19.700Z,100.00
2019-02-09T01:10:51.124Z,100.00
2019-02-09T01:13:22.529Z,100.00
2019-02-09T01:15:54.251Z,100.00
2019-02-09T01:18:25.910Z,100.00
2019-02-09T01:20:57.461Z,100.00
2019-02-09T01:23:28.956Z,100.00
2019-02-09T01:26:00.462Z,100.00
2019-02-09T01:28:31.793Z,100.00
2019-02-09T01:31:03.273Z,100.00
2019-02-09T01:33:34.888Z,100.00
2019-02-09T01:36:06.344Z,100.00
2019-02-09T01:38:37.676Z,100.00
2019-02-09T01:41:08.913Z,100.00
2019-02-09T01:43:40.050Z,100.00
2019-02-09T01:46:11.745Z,100.00
2019-02-09T01:48:42.981Z,100.00
2019-02-09T01:51:14.328Z,100.00
2019-02-09T01:53:45.691Z,100.00
2019-02-09T01:56:16.938Z,100.00
2019-02-09T01:58:48.266Z,100.00
2019-02-09T02:01:19.627Z,100.00
2019-02-09T02:03:51.315Z,100.00
2019-02-09T02:06:23.109Z,100.00
2019-02-09T02:08:54.628Z,100.00
2019-02-09T02:11:26.117Z,100.00
2019-02-09T02:13:57.493Z,100.00
2019-02-09T02:16:28.868Z,100.00
2019-02-09T02:19:00.272Z,100.00
2019-02-09T02:21:31.940Z,100.00
2019-02-09T02:24:03.345Z,100.00
2019-02-09T02:26:34.815Z,100.00
2019-02-09T02:29:06.418Z,100.00
2019-02-09T02:31:37.887Z,100.00
2019-02-09T02:34:09.273Z,100.00
2019-02-09T02:36:40.743Z,100.00
2019-02-09T02:39:13.070Z,100.00
2019-02-09T02:41:44.535Z,100.00
2019-02-09T02:44:16.165Z,100.00
2019-02-09T02:46:47.631Z,100.00
2019-02-09T02:49:18.970Z,100.00
2019-02-09T02:51:50.437Z,100.00
2019-02-09T02:54:21.696Z,100.00
2019-02-09T02:56:53.073Z,100.00
2019-02-09T02:59:24.526Z,100.00
2019-02-09T03:01:55.827Z,100.00
2019-02-09T03:04:27.253Z,100.00
2019-02-09T03:06:58.571Z,100.00
2019-02-09T03:09:29.896Z,100.00
2019-02-09T03:12:01.375Z,100.00
2019-02-09T03:14:33.069Z,100.00
2019-02-09T03:17:04.753Z,100.00
2019-02-09T03:19:36.188Z,100.00
2019-02-09T03:22:07.546Z,100.00
2019-02-09T03:24:38.880Z,100.00
2019-02-09T03:27:10.247Z,100.00
2019-02-09T03:29:41.776Z,100.00
2019-02-09T03:32:13.057Z,100.00
2019-02-09T03:34:44.410Z,100.00
2019-02-09T03:37:15.865Z,100.00
2019-02-09T03:39:47.180Z,100.00
2019-02-09T03:42:18.475Z,100.00
2019-02-09T03:44:49.803Z,100.00
2019-02-09T03:47:21.882Z,100.00
2019-02-09T03:49:53.146Z,100.00
2019-02-09T03:52:24.505Z,100.00
2019-02-09T03:54:55.863Z,100.00
2019-02-09T03:57:27.112Z,100.00
2019-02-09T03:59:58.438Z,100.00
2019-02-09T04:02:29.864Z,100.00
2019-02-09T04:05:01.236Z,100.00
2019-02-09T04:07:32.457Z,100.00
2019-02-09T04:10:03.911Z,100.00
2019-02-09T04:12:35.228Z,100.00
2019-02-09T04:15:08.497Z,100.00
2019-02-09T04:17:39.930Z,100.00
2019-02-09T04:20:14.064Z,100.00
2019-02-09T04:22:45.524Z,100.00
2019-02-09T04:25:18.770Z,100.00
2019-02-09T04:27:51.437Z,100.00
2019-02-09T04:30:33.349Z,100.00
2019-02-09T04:33:04.747Z,100.00
2019-02-09T04:35:36.156Z,100.00
2019-02-09T04:38:07.476Z,100.00
2019-02-09T04:40:38.852Z,100.00
2019-02-09T04:43:10.180Z,100.00
2019-02-09T04:45:41.577Z,100.00
2019-02-09T04:48:12.870Z,100.00
2019-02-09T04:50:44.240Z,100.00
2019-02-09T04:53:15.565Z,100.00
2019-02-09T04:55:50.033Z,100.00
2019-02-09T04:58:21.514Z,100.00
2019-02-09T05:00:52.833Z,100.00
2019-02-09T05:03:24.251Z,100.00
2019-02-09T05:05:55.803Z,100.00
2019-02-09T05:08:27.276Z,100.00
2019-02-09T05:10:58.672Z,100.00
2019-02-09T05:13:30.079Z,100.00
2019-02-09T05:16:01.421Z,100.00
2019-02-09T05:18:32.932Z,100.00
2019-02-09T05:21:04.534Z,100.00
2019-02-09T05:23:35.978Z,100.00
2019-02-09T05:26:08.684Z,100.00
2019-02-09T05:28:39.999Z,100.00
2019-02-09T05:31:12.300Z,100.00
2019-02-09T05:33:43.688Z,100.00
2019-02-09T05:36:15.225Z,100.00
2019-02-09T05:38:46.826Z,100.00
2019-02-09T05:41:18.513Z,100.00
2019-02-09T05:43:49.966Z,100.00
2019-02-09T05:46:21.350Z,100.00
2019-02-09T05:48:52.985Z,100.00
2019-02-09T05:51:27.596Z,100.00
2019-02-09T05:53:59.157Z,100.00
2019-02-09T05:56:30.683Z,100.00
2019-02-09T05:59:02.061Z,100.00
2019-02-09T06:01:33.597Z,100.00
2019-02-09T06:04:05.223Z,100.00
2019-02-09T06:06:37.291Z,100.00
2019-02-09T06:09:10.437Z,100.00
2019-02-09T06:11:41.965Z,100.00
2019-02-09T06:14:13.510Z,100.00
2019-02-09T06:16:44.766Z,100.00
2019-02-09T06:19:16.204Z,100.00
2019-02-09T06:21:47.609Z,100.00
2019-02-09T06:24:18.854Z,100.00
2019-02-09T06:26:50.171Z,100.00
2019-02-09T06:29:21.567Z,100.00
2019-02-09T06:31:53.003Z,100.00
2019-02-09T06:34:24.609Z,100.00
2019-02-09T06:36:56.118Z,100.00
2019-02-09T06:39:27.521Z,100.00
2019-02-09T06:41:58.807Z,100.00
2019-02-09T06:44:30.225Z,100.00
2019-02-09T06:47:01.726Z,100.00
2019-02-09T06:49:33.037Z,100.00
2019-02-09T06:52:04.454Z,100.00
2019-02-09T06:54:36.027Z,100.00
2019-02-09T06:57:07.798Z,100.00
2019-02-09T06:59:39.266Z,100.00
2019-02-09T07:02:10.558Z,100.00
2019-02-09T07:04:41.924Z,97.47
2019-02-09T07:07:13.328Z,83.18
2019-02-09T07:09:44.636Z,77.33
2019-02-09T07:12:16.308Z,71.73
2019-02-09T07:14:47.728Z,69.68
2019-02-09T07:17:19.318Z,73.28
2019-02-09T07:19:50.713Z,72.46
2019-02-09T07:22:22.206Z,73.25
2019-02-09T07:24:55.084Z,67.02
2019-02-09T07:27:26.643Z,63.33
2019-02-09T07:29:58.023Z,66.37
2019-02-09T07:32:29.330Z,71.89
2019-02-09T07:35:00.767Z,76.22
2019-02-09T07:37:32.341Z,78.33
2019-02-09T07:40:04.210Z,77.37
2019-02-09T07:42:35.682Z,76.14
2019-02-09T07:45:10.005Z,75.40
2019-02-09T07:47:41.485Z,74.77
2019-02-09T07:50:15.268Z,73.35
2019-02-09T07:52:47.398Z,67.54
2019-02-09T07:55:19.301Z,64.33
2019-02-09T08:21:29.517Z,64.33
2019-02-09T08:24:01.527Z,62.96
2019-02-09T08:26:33.446Z,60.90
2019-02-09T08:29:05.518Z,55.92
2019-02-09T08:31:37.535Z,51.53
2019-02-09T08:34:09.659Z,48.05
2019-02-09T08:36:41.785Z,44.40
2019-02-09T08:39:14.278Z,41.02
2019-02-09T08:41:46.330Z,40.39
2019-02-09T08:44:18.570Z,39.76
2019-02-09T08:46:50.425Z,38.55
2019-02-09T08:49:22.668Z,37.29
2019-02-09T08:51:55.004Z,37.70
2019-02-09T08:54:27.079Z,39.39
2019-02-09T08:56:59.697Z,37.88
2019-02-09T08:59:31.973Z,36.45
2019-02-09T09:02:05.106Z,35.50
2019-02-09T09:04:37.916Z,37.76
2019-02-09T09:07:10.228Z,38.00
2019-02-09T09:09:43.907Z,36.38
2019-02-09T09:12:15.706Z,37.10
2019-02-09T09:14:48.542Z,35.82
2019-02-09T09:17:20.605Z,34.36
2019-02-09T09:19:52.773Z,33.75
2019-02-09T09:22:24.549Z,34.06
2019-02-09T09:24:56.735Z,34.37
2019-02-09T09:27:30.190Z,34.07
2019-02-09T09:30:02.802Z,33.50
2019-02-09T09:32:34.824Z,32.38
2019-02-09T09:35:06.943Z,30.56
2019-02-09T09:37:39.005Z,29.10
2019-02-09T09:40:16.908Z,31.41
2019-02-09T09:42:49.460Z,31.55
2019-02-09T09:45:28.330Z,33.19
2019-02-09T09:48:00.536Z,32.24
2019-02-09T09:50:33.120Z,30.56
2019-02-09T09:53:06.538Z,30.69
2019-02-09T09:55:38.933Z,29.27
2019-02-09T09:58:11.392Z,29.07
2019-02-09T10:00:44.048Z,29.01
2019-02-09T10:03:16.575Z,28.57
2019-02-09T10:05:48.636Z,28.24
2019-02-09T10:08:21.862Z,28.32
2019-02-09T10:10:53.846Z,27.60
2019-02-09T10:13:26.029Z,26.45
2019-02-09T10:15:57.921Z,25.30
2019-02-09T10:18:30.510Z,24.33
2019-02-09T10:21:02.782Z,24.78
2019-02-09T10:23:35.407Z,24.81
2019-02-09T10:26:16.084Z,24.20
2019-02-09T10:28:48.554Z,24.42
2019-02-09T10:31:20.722Z,24.37
2019-02-09T10:33:52.636Z,23.98
2019-02-09T10:36:25.046Z,24.69
2019-02-09T10:38:57.206Z,23.93
2019-02-09T10:41:29.440Z,24.01
2019-02-09T10:44:01.535Z,23.64
2019-02-09T10:46:33.917Z,22.76
2019-02-09T10:49:06.075Z,23.79
2019-02-09T10:51:38.051Z,24.97
2019-02-09T10:54:16.632Z,24.72
2019-02-09T10:56:48.847Z,24.61
2019-02-09T10:59:20.698Z,24.64
2019-02-09T11:01:53.208Z,25.40
2019-02-09T11:04:25.433Z,24.15
2019-02-09T11:06:57.549Z,25.14
2019-02-09T11:09:29.956Z,24.53
2019-02-09T11:12:02.508Z,23.83
2019-02-09T11:14:34.987Z,24.64
2019-02-09T11:17:08.166Z,24.55
2019-02-09T11:19:40.903Z,23.19
2019-02-09T11:22:14.549Z,22.03
2019-02-09T11:24:46.607Z,21.87
2019-02-09T11:27:19.649Z,27.02
2019-02-09T11:29:51.608Z,28.82
2019-02-09T11:32:24.496Z,29.95
2019-02-09T11:34:56.345Z,27.85
2019-02-09T11:37:29.849Z,25.93
2019-02-09T11:40:01.729Z,26.26
2019-02-09T11:42:34.547Z,25.98
2019-02-09T11:45:08.205Z,24.49
2019-02-09T11:47:43.192Z,23.84
2019-02-09T11:50:15.421Z,24.14
2019-02-09T11:52:47.258Z,23.82
2019-02-09T11:55:19.442Z,22.26
2019-02-09T11:57:51.965Z,21.13
2019-02-09T12:00:29.755Z,21.46
2019-02-09T12:03:05.496Z,22.73
2019-02-09T12:05:35.209Z,23.32
2019-02-09T12:08:07.968Z,23.78
2019-02-09T12:10:40.145Z,23.79
2019-02-09T12:13:12.390Z,24.88
2019-02-09T12:15:44.522Z,23.32
2019-02-09T12:18:16.308Z,22.62
2019-02-09T12:20:48.028Z,21.90
2019-02-09T12:23:22.961Z,22.09
2019-02-09T12:25:55.473Z,21.65
2019-02-09T12:28:27.394Z,21.66
2019-02-09T12:30:59.544Z,21.75
2019-02-09T12:33:31.542Z,22.01
2019-02-09T12:36:03.930Z,21.28
2019-02-09T12:38:36.737Z,20.26
2019-02-09T12:41:08.880Z,20.64
2019-02-09T12:43:41.780Z,22.40
2019-02-09T12:46:14.398Z,26.00
2019-02-09T12:48:47.661Z,26.18
2019-02-09T12:51:24.078Z,26.16
2019-02-09T12:53:56.734Z,26.97
2019-02-09T12:56:28.518Z,27.38
2019-02-09T12:59:01.209Z,28.44
2019-02-09T13:01:33.419Z,28.05
2019-02-09T13:04:07.483Z,28.18
2019-02-09T13:06:39.521Z,30.24
2019-02-09T13:09:13.678Z,29.43
2019-02-09T13:11:45.625Z,29.58
2019-02-09T13:14:20.257Z,27.91
2019-02-09T13:16:52.093Z,26.38
2019-02-09T13:19:25.499Z,25.55
2019-02-09T13:21:57.290Z,24.95
2019-02-09T13:24:29.298Z,26.28
2019-02-09T13:27:01.927Z,27.21
2019-02-09T13:29:33.911Z,29.85
2019-02-09T13:32:06.132Z,30.95
2019-02-09T13:34:38.944Z,31.64
2019-02-09T13:37:10.853Z,32.28
2019-02-09T13:39:42.705Z,31.52
2019-02-09T13:42:14.677Z,31.06
2019-02-09T13:44:46.864Z,29.53
2019-02-09T13:47:19.190Z,28.99
2019-02-09T13:50:01.980Z,29.97
2019-02-09T13:52:34.386Z,29.84
2019-02-09T13:55:13.573Z,28.66
2019-02-09T13:57:45.634Z,28.05
2019-02-09T14:00:21.223Z,28.23
2019-02-09T14:02:53.573Z,28.57
2019-02-09T14:05:25.916Z,29.31
2019-02-09T14:07:57.629Z,28.75
2019-02-09T14:10:30.255Z,28.58
2019-02-09T14:13:01.954Z,29.02
2019-02-09T14:15:34.973Z,29.01
2019-02-09T14:18:09.681Z,29.09
2019-02-09T14:20:41.907Z,29.17
2019-02-09T14:23:14.057Z,31.25
2019-02-09T14:25:47.218Z,31.49
2019-02-09T14:28:22.515Z,31.23
2019-02-09T14:30:55.691Z,29.94
2019-02-09T14:33:27.542Z,29.25
2019-02-09T14:35:59.664Z,30.00
2019-02-09T14:38:32.053Z,31.48
2019-02-09T14:41:04.072Z,31.99
2019-02-09T14:43:36.093Z,32.88
2019-02-09T14:46:08.288Z,34.35
2019-02-09T14:48:40.316Z,35.18
2019-02-09T14:51:12.679Z,35.74
2019-02-09T14:53:44.594Z,35.94
2019-02-09T14:56:16.379Z,36.33
2019-02-09T14:58:48.222Z,36.42
2019-02-09T15:01:24.196Z,36.52
2019-02-09T15:04:02.594Z,36.53
2019-02-09T15:06:31.351Z,36.84
2019-02-09T15:09:04.811Z,36.75
2019-02-09T15:11:36.905Z,36.61
2019-02-09T15:14:08.779Z,36.87
2019-02-09T15:16:48.316Z,37.58
2019-02-09T15:19:23.854Z,38.13
2019-02-09T15:21:56.201Z,38.53
2019-02-09T15:24:28.318Z,39.03
2019-02-09T15:27:08.238Z,39.39
2019-02-09T15:29:40.175Z,40.21
2019-02-09T15:32:12.732Z,40.96
2019-02-09T15:34:44.897Z,42.22
2019-02-09T15:37:17.280Z,42.78
2019-02-09T15:39:50.396Z,43.49
2019-02-09T15:42:24.073Z,44.40
2019-02-09T15:44:57.727Z,45.32
2019-02-09T15:47:30.019Z,46.10
2019-02-09T15:50:01.899Z,46.79
2019-02-09T15:52:34.372Z,47.38
2019-02-09T15:55:07.999Z,48.18
2019-02-09T15:57:39.964Z,48.67
2019-02-09T16:00:19.744Z,49.04
2019-02-09T16:02:54.343Z,50.15
2019-02-09T16:05:27.195Z,50.23
2019-02-09T16:07:59.534Z,50.50
2019-02-09T16:10:38.357Z,50.63
2019-02-09T16:13:10.861Z,51.40
2019-02-09T16:15:49.320Z,51.91
2019-02-09T16:18:22.464Z,53.49
2019-02-09T16:20:59.187Z,53.99
2019-02-09T16:23:33.444Z,54.08
2019-02-09T16:26:07.365Z,54.73
2019-02-09T16:28:42.477Z,55.24
2019-02-09T16:31:15.757Z,55.93
2019-02-09T16:33:49.586Z,56.72
2019-02-09T16:36:23.984Z,57.34
2019-02-09T16:38:57.983Z,57.99
2019-02-09T16:41:31.516Z,58.55
2019-02-09T16:44:05.902Z,59.54
2019-02-09T16:46:39.778Z,60.01
2019-02-09T16:49:16.838Z,60.63
2019-02-09T16:51:53.117Z,61.50
2019-02-09T16:54:31.050Z,62.00
2019-02-09T16:57:04.563Z,62.17
2019-02-09T16:59:39.605Z,62.51
2019-02-09T17:02:31.586Z,62.97
2019-02-09T17:05:05.894Z,63.28
2019-02-09T17:07:40.015Z,63.45
2019-02-09T17:10:15.027Z,63.62
2019-02-09T17:12:48.841Z,64.07
2019-02-09T17:15:27.959Z,64.62
2019-02-09T17:18:01.754Z,65.60
2019-02-09T17:20:35.482Z,66.33
2019-02-09T17:23:10.403Z,67.01
2019-02-09T17:25:44.127Z,67.48
2019-02-09T17:28:18.140Z,68.04
2019-02-09T17:30:51.698Z,68.45
2019-02-09T17:33:25.281Z,68.86
2019-02-09T17:35:59.833Z,69.04
2019-02-09T17:38:33.749Z,69.97
2019-02-09T17:41:10.349Z,69.95
2019-02-09T17:43:46.894Z,70.28
2019-02-09T17:46:21.000Z,70.76
2019-02-09T17:48:54.634Z,71.84
2019-02-09T17:51:28.722Z,72.04
2019-02-09T17:54:02.939Z,72.59
2019-02-09T17:56:38.880Z,73.03
2019-02-09T17:59:12.772Z,73.25
2019-02-09T18:01:47.344Z,73.71
2019-02-09T18:04:21.743Z,74.41
2019-02-09T18:06:55.070Z,74.36
2019-02-09T18:09:28.614Z,74.98
2019-02-09T18:12:02.204Z,75.57
2019-02-09T18:14:38.684Z,76.40
2019-02-09T18:17:12.784Z,76.46
2019-02-09T18:19:46.496Z,76.34
2019-02-09T18:22:20.458Z,76.52
2019-02-09T18:24:54.038Z,76.85
2019-02-09T18:27:27.956Z,77.76
2019-02-09T18:30:01.624Z,77.98
2019-02-09T18:32:35.892Z,78.41
2019-02-09T18:35:09.946Z,78.73
2019-02-09T18:37:43.616Z,79.24
2019-02-09T18:40:22.287Z,79.17
2019-02-09T18:42:56.922Z,79.52
2019-02-09T18:45:30.820Z,79.80
2019-02-09T18:48:08.087Z,80.78
2019-02-09T18:50:41.915Z,80.94
2019-02-09T18:53:18.795Z,80.82
2019-02-09T18:55:52.079Z,80.81
2019-02-09T18:58:25.932Z,80.26
2019-02-09T19:01:07.724Z,80.36
2019-02-09T19:03:41.174Z,80.63
2019-02-09T19:06:14.524Z,81.21
2019-02-09T19:08:48.513Z,81.20
2019-02-09T19:11:21.970Z,81.27
2019-02-09T19:13:58.721Z,82.04
2019-02-09T19:16:32.562Z,82.70
2019-02-09T19:19:08.932Z,83.53
2019-02-09T19:21:42.554Z,83.45
2019-02-09T19:24:16.691Z,84.26
2019-02-09T19:26:50.341Z,84.33
2019-02-09T19:29:24.459Z,84.52
2019-02-09T19:31:59.030Z,84.47
2019-02-09T19:34:34.838Z,84.44
2019-02-09T19:37:10.137Z,84.17
2019-02-09T19:39:44.983Z,84.12
2019-02-09T19:42:19.414Z,83.96
2019-02-09T19:44:53.347Z,83.81
2019-02-09T19:47:27.169Z,84.19
2019-02-09T19:50:01.586Z,84.93
2019-02-09T19:52:35.684Z,85.32
2019-02-09T19:55:15.253Z,84.95
2019-02-09T19:57:49.517Z,84.90
2019-02-09T20:00:26.634Z,84.43
2019-02-09T20:03:01.644Z,84.67
2019-02-09T20:05:35.603Z,85.53
2019-02-09T20:08:10.920Z,85.39
2019-02-09T20:10:45.044Z,85.71
2019-02-09T20:13:20.683Z,85.75
2019-02-09T20:15:55.187Z,85.67
2019-02-09T20:18:32.371Z,86.26
2019-02-09T20:21:07.394Z,86.50
2019-02-09T20:23:42.093Z,86.72
2019-02-09T20:26:16.236Z,86.61
2019-02-09T20:28:49.923Z,87.70
2019-02-09T20:31:24.991Z,88.85
2019-02-09T20:33:59.539Z,90.61
2019-02-09T20:36:41.077Z,92.14
2019-02-09T20:39:22.408Z,93.34
2019-02-09T20:41:56.242Z,94.13
2019-02-09T20:44:30.644Z,94.27
2019-02-09T20:47:04.522Z,93.63
2019-02-09T20:49:38.048Z,93.42
2019-02-09T20:52:12.765Z,93.48
2019-02-09T20:54:47.029Z,93.44
2019-02-09T20:57:20.814Z,94.44
2019-02-09T20:59:57.233Z,94.81
2019-02-09T21:02:31.026Z,95.34
2019-02-09T21:05:11.423Z,95.56
2019-02-09T21:07:44.968Z,95.62
2019-02-09T21:10:26.673Z,96.46
2019-02-09T21:13:01.343Z,94.84
2019-02-09T21:15:36.026Z,94.02
2019-02-09T21:18:10.965Z,94.66
2019-02-09T21:20:45.313Z,95.86
2019-02-09T21:23:27.177Z,96.27
2019-02-09T21:26:00.715Z,96.43
2019-02-09T21:28:35.238Z,97.52
2019-02-09T21:31:12.491Z,97.89
2019-02-09T21:33:46.475Z,97.59
2019-02-09T21:36:19.834Z,97.52
2019-02-09T21:38:54.149Z,97.55
2019-02-09T21:41:27.488Z,97.50
2019-02-09T21:44:01.614Z,97.47
2019-02-09T21:46:45.776Z,98.05
2019-02-09T21:49:19.368Z,98.27
2019-02-09T21:51:53.300Z,98.23
2019-02-09T21:54:26.585Z,98.53
2019-02-09T21:57:00.079Z,99.46
2019-02-09T21:59:33.955Z,99.21
2019-02-09T22:02:07.691Z,98.09
2019-02-09T22:04:41.656Z,98.69
2019-02-09T22:07:14.965Z,99.16
2019-02-09T22:09:48.674Z,100.00
2019-02-09T22:12:21.803Z,100.00
2019-02-09T22:14:54.917Z,100.00
2019-02-09T22:17:27.785Z,100.00
2019-02-09T22:20:00.660Z,100.00
2019-02-09T22:22:33.671Z,100.00
2019-02-09T22:25:07.172Z,100.00
2019-02-09T22:27:40.213Z,100.00
2019-02-09T22:30:15.770Z,100.00
2019-02-09T22:32:48.451Z,100.00
2019-02-09T22:35:21.130Z,100.00
2019-02-09T22:37:53.470Z,100.00
2019-02-09T22:40:31.254Z,100.00
2019-02-09T22:43:03.597Z,100.00
2019-02-09T22:45:35.952Z,100.00
2019-02-09T22:48:09.821Z,100.00
2019-02-09T22:50:45.308Z,100.00
2019-02-09T22:53:17.334Z,100.00
2019-02-09T22:55:49.126Z,100.00
2019-02-09T22:58:21.226Z,100.00
2019-02-09T23:01:39.150Z,100.00
2019-02-09T23:05:13.479Z,100.00
2019-02-09T23:07:45.341Z,100.00
2019-02-09T23:10:17.652Z,100.00
2019-02-09T23:12:54.020Z,100.00
2019-02-09T23:15:25.987Z,100.00
2019-02-09T23:17:57.713Z,100.00
2019-02-09T23:20:29.779Z,100.00
2019-02-09T23:23:02.016Z,100.00
2019-02-09T23:25:33.901Z,100.00
2019-02-09T23:28:05.708Z,100.00
2019-02-09T23:30:37.716Z,100.00
2019-02-09T23:33:09.583Z,100.00
2019-02-09T23:35:41.747Z,100.00
2019-02-09T23:38:13.603Z,100.00
2019-02-09T23:40:48.156Z,100.00
2019-02-09T23:43:26.175Z,100.00
2019-02-09T23:46:00.079Z,100.00
2019-02-09T23:48:36.891Z,100.00
2019-02-09T23:51:13.053Z,100.00
2019-02-09T23:53:50.836Z,100.00
2019-02-09T23:56:25.542Z,100.00
2019-02-09T23:59:02.151Z,100.00
